EXS75NE LGIR-EGPH
Flight info
| Callsign | EXS75NE |
|---|---|
| Flight time | N/A |
| Altitude | 38000 |
| Route | EPALO M749 DIRMI UM749 ATV DCT LUSES DCT BITLA DCT MAVAR DCT AKIKA DCT NILKU DCT OKSIG DCT KOMAR DCT PODET DCT ABTAN DCT NEMAL DCT SIMBA DCT INBED DCT OSBIT DCT TIVUN DCT GODOS DCT AGPED |
| Aircraft | A21N/M-SDE2E3FGHIRWXY/LB1 |
Departure
| Time | 2026-04-30 10:19 |
|---|---|
| Airport | Heraklion International Nikos Kazantzakis Airport (LGIR) |
Arrival
| Time | N/A |
|---|---|
| Airport | Edinburgh Airport (EGPH) |
| Time | Latitude | Longitude | Altitude | Speed | Heading |
|---|---|---|---|---|---|
| 2026-04-30 10:04 | 35.33819 | 25.17418 | 96 ft | 0 kts | 317° |
| 2026-04-30 10:12 | 35.33819 | 25.17417 | 96 ft | 1 kts | 317° |
| 2026-04-30 10:13 | 35.33828 | 25.17407 | 98 ft | 3 kts | 318° |
| 2026-04-30 10:13 | 35.33847 | 25.17386 | 98 ft | 5 kts | 318° |
| 2026-04-30 10:13 | 35.33885 | 25.17371 | 96 ft | 7 kts | 357° |
| 2026-04-30 10:13 | 35.33917 | 25.17422 | 96 ft | 9 kts | 83° |
| 2026-04-30 10:14 | 35.33910 | 25.17509 | 99 ft | 11 kts | 97° |
| 2026-04-30 10:14 | 35.33903 | 25.17614 | 96 ft | 13 kts | 94° |
| 2026-04-30 10:14 | 35.33886 | 25.17874 | 97 ft | 17 kts | 95° |
| 2026-04-30 10:15 | 35.33875 | 25.18025 | 97 ft | 19 kts | 95° |
| 2026-04-30 10:15 | 35.33864 | 25.18189 | 98 ft | 20 kts | 95° |
| 2026-04-30 10:15 | 35.33851 | 25.18366 | 96 ft | 21 kts | 95° |
| 2026-04-30 10:15 | 35.33841 | 25.18555 | 95 ft | 23 kts | 95° |
| 2026-04-30 10:16 | 35.33830 | 25.18686 | 95 ft | 24 kts | 96° |
| 2026-04-30 10:16 | 35.33818 | 25.18847 | 95 ft | 0 kts | 95° |
| 2026-04-30 10:16 | 35.33817 | 25.18857 | 95 ft | 7 kts | 95° |
| 2026-04-30 10:17 | 35.33898 | 25.19021 | 96 ft | 15 kts | 330° |
| 2026-04-30 10:17 | 35.33911 | 25.18938 | 96 ft | 0 kts | 276° |
| 2026-04-30 10:18 | 35.33915 | 25.18896 | 94 ft | 26 kts | 276° |
| 2026-04-30 10:18 | 35.33957 | 25.18318 | 100 ft | 106 kts | 273° |
| 2026-04-30 10:18 | 35.34038 | 25.17098 | 98 ft | 179 kts | 275° |
| 2026-04-30 10:19 | 35.34303 | 25.13938 | 1419 ft | 204 kts | 280° |
| 2026-04-30 10:19 | 35.34864 | 25.12348 | 2105 ft | 210 kts | 313° |
| 2026-04-30 10:19 | 35.36157 | 25.11511 | 2665 ft | 219 kts | 353° |
| 2026-04-30 10:19 | 35.37657 | 25.11838 | 3288 ft | 224 kts | 25° |
| 2026-04-30 10:20 | 35.39028 | 25.12768 | 4013 ft | 227 kts | 30° |
| 2026-04-30 10:20 | 35.42150 | 25.14251 | 5041 ft | 258 kts | 355° |
| 2026-04-30 10:20 | 35.43921 | 25.13694 | 5564 ft | 269 kts | 338° |
| 2026-04-30 10:21 | 35.45681 | 25.12839 | 6288 ft | 273 kts | 337° |
| 2026-04-30 10:21 | 35.47462 | 25.11977 | 7052 ft | 276 kts | 338° |
| 2026-04-30 10:21 | 35.49260 | 25.11129 | 7832 ft | 278 kts | 338° |
| 2026-04-30 10:21 | 35.51078 | 25.10288 | 8610 ft | 281 kts | 338° |
| 2026-04-30 10:22 | 35.52916 | 25.09446 | 9401 ft | 283 kts | 338° |
| 2026-04-30 10:22 | 35.54771 | 25.08604 | 10169 ft | 286 kts | 338° |
| 2026-04-30 10:22 | 35.56691 | 25.07735 | 10583 ft | 302 kts | 338° |
| 2026-04-30 10:22 | 35.58728 | 25.06813 | 10887 ft | 322 kts | 338° |
| 2026-04-30 10:23 | 35.60868 | 25.05846 | 11408 ft | 331 kts | 338° |
| 2026-04-30 10:23 | 35.63045 | 25.04867 | 12115 ft | 335 kts | 338° |
| 2026-04-30 10:23 | 35.65238 | 25.03878 | 12856 ft | 338 kts | 338° |
| 2026-04-30 10:23 | 35.67454 | 25.02878 | 13588 ft | 340 kts | 337° |
| 2026-04-30 10:24 | 35.69684 | 25.01868 | 14244 ft | 344 kts | 337° |
| 2026-04-30 10:24 | 35.71940 | 25.00848 | 14890 ft | 346 kts | 337° |
| 2026-04-30 10:24 | 35.74208 | 24.99827 | 15535 ft | 349 kts | 337° |
| 2026-04-30 10:24 | 35.76495 | 24.98799 | 16172 ft | 351 kts | 337° |
| 2026-04-30 10:25 | 35.78801 | 24.97762 | 16800 ft | 354 kts | 337° |
| 2026-04-30 10:25 | 35.81118 | 24.96718 | 17434 ft | 356 kts | 337° |
| 2026-04-30 10:25 | 35.83455 | 24.95663 | 18057 ft | 359 kts | 337° |
| 2026-04-30 10:25 | 35.85809 | 24.94599 | 18623 ft | 362 kts | 337° |
| 2026-04-30 10:26 | 35.88183 | 24.93524 | 19140 ft | 365 kts | 337° |
| 2026-04-30 10:26 | 35.90548 | 24.92455 | 19637 ft | 368 kts | 337° |
| 2026-04-30 10:26 | 35.92959 | 24.91364 | 20138 ft | 371 kts | 337° |
| 2026-04-30 10:26 | 35.95391 | 24.90265 | 20627 ft | 374 kts | 337° |
| 2026-04-30 10:27 | 35.97846 | 24.89155 | 21130 ft | 377 kts | 337° |
| 2026-04-30 10:27 | 36.00349 | 24.88026 | 21623 ft | 380 kts | 337° |
| 2026-04-30 10:27 | 36.02815 | 24.86915 | 22101 ft | 383 kts | 337° |
| 2026-04-30 10:27 | 36.05320 | 24.85786 | 22582 ft | 386 kts | 337° |
| 2026-04-30 10:28 | 36.07854 | 24.84643 | 23063 ft | 389 kts | 337° |
| 2026-04-30 10:28 | 36.10408 | 24.83492 | 23524 ft | 392 kts | 337° |
| 2026-04-30 10:28 | 36.12977 | 24.82334 | 23939 ft | 394 kts | 337° |
| 2026-04-30 10:28 | 36.15562 | 24.81173 | 24349 ft | 396 kts | 337° |
| 2026-04-30 10:29 | 36.18157 | 24.80015 | 24751 ft | 398 kts | 337° |
| 2026-04-30 10:29 | 36.20766 | 24.78857 | 25167 ft | 399 kts | 337° |
| 2026-04-30 10:29 | 36.23389 | 24.77699 | 25578 ft | 401 kts | 337° |
| 2026-04-30 10:29 | 36.26028 | 24.76541 | 25961 ft | 403 kts | 337° |
| 2026-04-30 10:30 | 36.28672 | 24.75385 | 26343 ft | 405 kts | 337° |
| 2026-04-30 10:30 | 36.31335 | 24.74227 | 26713 ft | 406 kts | 337° |
| 2026-04-30 10:30 | 36.34011 | 24.73069 | 27077 ft | 408 kts | 337° |
| 2026-04-30 10:30 | 36.36695 | 24.71911 | 27435 ft | 410 kts | 337° |
| 2026-04-30 10:31 | 36.39401 | 24.70749 | 27774 ft | 411 kts | 337° |
| 2026-04-30 10:31 | 36.42113 | 24.69587 | 28110 ft | 413 kts | 337° |
| 2026-04-30 10:31 | 36.44836 | 24.68424 | 28443 ft | 415 kts | 337° |
| 2026-04-30 10:31 | 36.47568 | 24.67260 | 28777 ft | 417 kts | 337° |
| 2026-04-30 10:32 | 36.50314 | 24.66083 | 29047 ft | 419 kts | 337° |
| 2026-04-30 10:32 | 36.53086 | 24.64892 | 29327 ft | 422 kts | 337° |
| 2026-04-30 10:32 | 36.55845 | 24.63705 | 29612 ft | 424 kts | 337° |
| 2026-04-30 10:32 | 36.58638 | 24.62505 | 29901 ft | 425 kts | 337° |
| 2026-04-30 10:33 | 36.61449 | 24.61299 | 30188 ft | 427 kts | 337° |
| 2026-04-30 10:33 | 36.64264 | 24.60093 | 30440 ft | 429 kts | 337° |
| 2026-04-30 10:33 | 36.67091 | 24.58886 | 30686 ft | 430 kts | 337° |
| 2026-04-30 10:33 | 36.69931 | 24.57676 | 30930 ft | 432 kts | 337° |
| 2026-04-30 10:34 | 36.72743 | 24.56481 | 31172 ft | 433 kts | 337° |
| 2026-04-30 10:34 | 36.75638 | 24.55247 | 31400 ft | 435 kts | 337° |
| 2026-04-30 10:34 | 36.78472 | 24.54039 | 31618 ft | 437 kts | 337° |
| 2026-04-30 10:34 | 36.81388 | 24.52799 | 31850 ft | 438 kts | 337° |
| 2026-04-30 10:35 | 36.84239 | 24.51590 | 32070 ft | 439 kts | 337° |
| 2026-04-30 10:35 | 36.87133 | 24.50366 | 32277 ft | 440 kts | 337° |
| 2026-04-30 10:35 | 36.90082 | 24.49122 | 32476 ft | 442 kts | 337° |
| 2026-04-30 10:35 | 36.92961 | 24.47910 | 32657 ft | 443 kts | 337° |
| 2026-04-30 10:36 | 36.95885 | 24.46682 | 32839 ft | 444 kts | 337° |
| 2026-04-30 10:36 | 36.98820 | 24.45453 | 33016 ft | 445 kts | 337° |
| 2026-04-30 10:36 | 37.01756 | 24.44225 | 33169 ft | 446 kts | 337° |
| 2026-04-30 10:36 | 37.04696 | 24.42998 | 33306 ft | 447 kts | 337° |
| 2026-04-30 10:37 | 37.07647 | 24.41769 | 33428 ft | 447 kts | 337° |
| 2026-04-30 10:37 | 37.10606 | 24.40538 | 33522 ft | 448 kts | 337° |
| 2026-04-30 10:37 | 37.16523 | 24.38082 | 33700 ft | 449 kts | 337° |
| 2026-04-30 10:38 | 37.22457 | 24.35630 | 33887 ft | 449 kts | 337° |
| 2026-04-30 10:38 | 37.28396 | 24.33198 | 34047 ft | 449 kts | 337° |
| 2026-04-30 10:39 | 37.34280 | 24.30796 | 34182 ft | 448 kts | 337° |
| 2026-04-30 10:39 | 37.40224 | 24.28373 | 34311 ft | 448 kts | 337° |
| 2026-04-30 10:40 | 37.46151 | 24.25960 | 34433 ft | 448 kts | 337° |
| 2026-04-30 10:40 | 37.52079 | 24.23538 | 34523 ft | 448 kts | 337° |
| 2026-04-30 10:41 | 37.58014 | 24.21112 | 34622 ft | 448 kts | 337° |
| 2026-04-30 10:41 | 37.63943 | 24.18691 | 34731 ft | 448 kts | 337° |
| 2026-04-30 10:42 | 37.69868 | 24.16272 | 34830 ft | 448 kts | 337° |
| 2026-04-30 10:42 | 37.75789 | 24.13833 | 34890 ft | 448 kts | 337° |
| 2026-04-30 10:43 | 37.81721 | 24.11384 | 34970 ft | 448 kts | 337° |
| 2026-04-30 10:43 | 37.87649 | 24.08939 | 35043 ft | 448 kts | 337° |
| 2026-04-30 10:44 | 37.93566 | 24.06499 | 35121 ft | 447 kts | 337° |
| 2026-04-30 10:44 | 37.99448 | 24.04062 | 35180 ft | 447 kts | 337° |
| 2026-04-30 10:45 | 38.05363 | 24.01609 | 35232 ft | 447 kts | 337° |
| 2026-04-30 10:45 | 38.11278 | 23.99156 | 35267 ft | 447 kts | 337° |
| 2026-04-30 10:46 | 38.17192 | 23.96705 | 35321 ft | 447 kts | 337° |
| 2026-04-30 10:46 | 38.23103 | 23.94257 | 35362 ft | 447 kts | 337° |
| 2026-04-30 10:47 | 38.29016 | 23.91811 | 35394 ft | 447 kts | 337° |
| 2026-04-30 10:47 | 38.34836 | 23.89404 | 35435 ft | 447 kts | 337° |
| 2026-04-30 10:48 | 38.40747 | 23.86960 | 35503 ft | 446 kts | 337° |
| 2026-04-30 10:48 | 38.46667 | 23.84547 | 35524 ft | 447 kts | 337° |
| 2026-04-30 10:49 | 38.52595 | 23.82142 | 35557 ft | 447 kts | 337° |
| 2026-04-30 10:49 | 38.58519 | 23.79737 | 35585 ft | 447 kts | 337° |
| 2026-04-30 10:50 | 38.64445 | 23.77333 | 35638 ft | 447 kts | 337° |
| 2026-04-30 10:50 | 38.70375 | 23.74918 | 35664 ft | 447 kts | 337° |
| 2026-04-30 10:51 | 38.76304 | 23.72493 | 35661 ft | 447 kts | 337° |
| 2026-04-30 10:51 | 38.82234 | 23.70074 | 35672 ft | 447 kts | 337° |
| 2026-04-30 10:52 | 38.88166 | 23.67654 | 35720 ft | 447 kts | 337° |
| 2026-04-30 10:52 | 38.90984 | 23.66083 | 35699 ft | 439 kts | 325° |
| 2026-04-30 10:52 | 38.93423 | 23.63782 | 35705 ft | 432 kts | 315° |
| 2026-04-30 10:53 | 38.97859 | 23.58694 | 35847 ft | 429 kts | 314° |
| 2026-04-30 10:53 | 39.02338 | 23.53571 | 36025 ft | 427 kts | 314° |
| 2026-04-30 10:54 | 39.06755 | 23.48562 | 36202 ft | 425 kts | 315° |
| 2026-04-30 10:54 | 39.11188 | 23.43535 | 36371 ft | 424 kts | 314° |
| 2026-04-30 10:55 | 39.15613 | 23.38499 | 36490 ft | 424 kts | 314° |
| 2026-04-30 10:55 | 39.19999 | 23.33489 | 36625 ft | 424 kts | 314° |
| 2026-04-30 10:56 | 39.24425 | 23.28450 | 36740 ft | 424 kts | 314° |
| 2026-04-30 10:56 | 39.28832 | 23.23419 | 36856 ft | 423 kts | 314° |
| 2026-04-30 10:57 | 39.33230 | 23.18376 | 36987 ft | 422 kts | 314° |
| 2026-04-30 10:57 | 39.37610 | 23.13351 | 37110 ft | 420 kts | 314° |
| 2026-04-30 10:58 | 39.41978 | 23.08324 | 37162 ft | 420 kts | 314° |
| 2026-04-30 10:58 | 39.46326 | 23.03325 | 37244 ft | 417 kts | 314° |
| 2026-04-30 10:59 | 39.50656 | 22.98340 | 37305 ft | 417 kts | 314° |
| 2026-04-30 10:59 | 39.54990 | 22.93331 | 37297 ft | 418 kts | 314° |
| 2026-04-30 11:00 | 39.59293 | 22.88353 | 37321 ft | 419 kts | 314° |
| 2026-04-30 11:00 | 39.63638 | 22.83319 | 37412 ft | 418 kts | 314° |
| 2026-04-30 11:01 | 39.67971 | 22.78284 | 37480 ft | 419 kts | 314° |
| 2026-04-30 11:01 | 39.71572 | 22.74083 | 37560 ft | 418 kts | 314° |
| 2026-04-30 11:02 | 39.75907 | 22.69036 | 37619 ft | 418 kts | 314° |
| 2026-04-30 11:02 | 39.80939 | 22.63151 | 37688 ft | 419 kts | 314° |
| 2026-04-30 11:03 | 39.84571 | 22.58908 | 37716 ft | 419 kts | 314° |
| 2026-04-30 11:04 | 39.91086 | 22.51296 | 37779 ft | 419 kts | 314° |
| 2026-04-30 11:04 | 39.95421 | 22.46207 | 37837 ft | 419 kts | 314° |
| 2026-04-30 11:05 | 39.99725 | 22.41139 | 37879 ft | 419 kts | 314° |
| 2026-04-30 11:05 | 40.04048 | 22.36037 | 37892 ft | 418 kts | 314° |
| 2026-04-30 11:06 | 40.08352 | 22.30966 | 37925 ft | 419 kts | 314° |
| 2026-04-30 11:06 | 40.12653 | 22.25862 | 37917 ft | 416 kts | 314° |
| 2026-04-30 11:07 | 40.16924 | 22.20792 | 37932 ft | 414 kts | 314° |
| 2026-04-30 11:07 | 40.21196 | 22.15735 | 37950 ft | 415 kts | 314° |
| 2026-04-30 11:08 | 40.25479 | 22.10653 | 38010 ft | 416 kts | 314° |
| 2026-04-30 11:08 | 40.29763 | 22.05554 | 38058 ft | 417 kts | 314° |
| 2026-04-30 11:09 | 40.34061 | 22.00427 | 38048 ft | 418 kts | 313° |
| 2026-04-30 11:09 | 40.38352 | 21.95293 | 38048 ft | 418 kts | 313° |
| 2026-04-30 11:10 | 40.42616 | 21.90187 | 38046 ft | 418 kts | 313° |
| 2026-04-30 11:10 | 40.46907 | 21.85043 | 38043 ft | 417 kts | 313° |
| 2026-04-30 11:11 | 40.51192 | 21.79893 | 38065 ft | 417 kts | 313° |
| 2026-04-30 11:11 | 40.55469 | 21.74744 | 38039 ft | 416 kts | 313° |
| 2026-04-30 11:12 | 40.59728 | 21.69603 | 38029 ft | 415 kts | 313° |
| 2026-04-30 11:12 | 40.63983 | 21.64456 | 38039 ft | 415 kts | 313° |
| 2026-04-30 11:13 | 40.68234 | 21.59317 | 38040 ft | 414 kts | 313° |
| 2026-04-30 11:13 | 40.72480 | 21.54168 | 38050 ft | 414 kts | 313° |
| 2026-04-30 11:14 | 40.76717 | 21.49016 | 38050 ft | 414 kts | 313° |
| 2026-04-30 11:14 | 40.80957 | 21.43859 | 38053 ft | 414 kts | 313° |
| 2026-04-30 11:15 | 40.85184 | 21.38704 | 38066 ft | 414 kts | 313° |
| 2026-04-30 11:15 | 40.89553 | 21.33738 | 38066 ft | 416 kts | 317° |
| 2026-04-30 11:16 | 40.94126 | 21.29044 | 38066 ft | 416 kts | 317° |
| 2026-04-30 11:16 | 40.98659 | 21.24383 | 38060 ft | 416 kts | 317° |
| 2026-04-30 11:17 | 41.03213 | 21.19683 | 38072 ft | 416 kts | 317° |
| 2026-04-30 11:17 | 41.07795 | 21.14962 | 38064 ft | 417 kts | 317° |
| 2026-04-30 11:18 | 41.12364 | 21.10229 | 38062 ft | 417 kts | 317° |
| 2026-04-30 11:18 | 41.19225 | 21.03112 | 38081 ft | 418 kts | 317° |
| 2026-04-30 11:19 | 41.23534 | 20.98632 | 38078 ft | 420 kts | 317° |
| 2026-04-30 11:19 | 41.28137 | 20.93837 | 38106 ft | 420 kts | 317° |
| 2026-04-30 11:20 | 41.32744 | 20.89031 | 38087 ft | 422 kts | 317° |
| 2026-04-30 11:20 | 41.37369 | 20.84193 | 38092 ft | 424 kts | 317° |
| 2026-04-30 11:21 | 41.42011 | 20.79330 | 38090 ft | 424 kts | 317° |
| 2026-04-30 11:21 | 41.46648 | 20.74468 | 38097 ft | 423 kts | 317° |
| 2026-04-30 11:22 | 41.51269 | 20.69610 | 38121 ft | 423 kts | 317° |
| 2026-04-30 11:22 | 41.55883 | 20.64747 | 38157 ft | 422 kts | 317° |
| 2026-04-30 11:23 | 41.60493 | 20.59886 | 38143 ft | 421 kts | 317° |
| 2026-04-30 11:24 | 41.67348 | 20.52634 | 38169 ft | 418 kts | 317° |
| 2026-04-30 11:24 | 41.71919 | 20.47812 | 38168 ft | 419 kts | 317° |
| 2026-04-30 11:25 | 41.78765 | 20.40584 | 38213 ft | 417 kts | 317° |
| 2026-04-30 11:26 | 41.87844 | 20.30964 | 38213 ft | 417 kts | 317° |
| 2026-04-30 11:26 | 41.92392 | 20.26132 | 38213 ft | 417 kts | 317° |
| 2026-04-30 11:27 | 41.96899 | 20.21332 | 38231 ft | 410 kts | 317° |
| 2026-04-30 11:27 | 42.01404 | 20.16526 | 38229 ft | 411 kts | 317° |
| 2026-04-30 11:28 | 42.08127 | 20.09343 | 38249 ft | 411 kts | 317° |
| 2026-04-30 11:29 | 42.12602 | 20.04546 | 38257 ft | 412 kts | 317° |
| 2026-04-30 11:29 | 42.19311 | 19.97340 | 38246 ft | 410 kts | 317° |
| 2026-04-30 11:30 | 42.25990 | 19.90142 | 38246 ft | 411 kts | 316° |
| 2026-04-30 11:31 | 42.30465 | 19.85311 | 38249 ft | 412 kts | 317° |
| 2026-04-30 11:31 | 42.34941 | 19.80466 | 38260 ft | 411 kts | 317° |
| 2026-04-30 11:32 | 42.39415 | 19.75617 | 38243 ft | 413 kts | 317° |
| 2026-04-30 11:32 | 42.43902 | 19.70748 | 38250 ft | 413 kts | 317° |
| 2026-04-30 11:33 | 42.50612 | 19.63441 | 38231 ft | 412 kts | 317° |
| 2026-04-30 11:33 | 42.55090 | 19.58558 | 38241 ft | 414 kts | 317° |
| 2026-04-30 11:34 | 42.59584 | 19.53643 | 38257 ft | 416 kts | 317° |
| 2026-04-30 11:34 | 42.64073 | 19.48719 | 38267 ft | 415 kts | 317° |
| 2026-04-30 11:35 | 42.68537 | 19.43817 | 38255 ft | 416 kts | 317° |
| 2026-04-30 11:35 | 42.73036 | 19.38868 | 38257 ft | 415 kts | 317° |
| 2026-04-30 11:36 | 42.77540 | 19.33902 | 38261 ft | 417 kts | 317° |
| 2026-04-30 11:36 | 42.82072 | 19.28892 | 38274 ft | 418 kts | 317° |
| 2026-04-30 11:37 | 42.86554 | 19.23933 | 38257 ft | 417 kts | 317° |
| 2026-04-30 11:37 | 42.91039 | 19.18960 | 38272 ft | 418 kts | 317° |
| 2026-04-30 11:38 | 42.95539 | 19.13962 | 38274 ft | 417 kts | 317° |
| 2026-04-30 11:38 | 43.00045 | 19.08950 | 38295 ft | 417 kts | 317° |
| 2026-04-30 11:39 | 43.04549 | 19.03922 | 38276 ft | 420 kts | 317° |
| 2026-04-30 11:39 | 43.09063 | 18.98880 | 38266 ft | 419 kts | 317° |
| 2026-04-30 11:40 | 43.13580 | 18.93823 | 38262 ft | 419 kts | 317° |
| 2026-04-30 11:40 | 43.18083 | 18.88767 | 38260 ft | 420 kts | 317° |
| 2026-04-30 11:41 | 43.22594 | 18.83697 | 38254 ft | 418 kts | 317° |
| 2026-04-30 11:41 | 43.27093 | 18.78632 | 38257 ft | 419 kts | 317° |
| 2026-04-30 11:42 | 43.31594 | 18.73547 | 38261 ft | 417 kts | 317° |
| 2026-04-30 11:42 | 43.36095 | 18.68468 | 38255 ft | 419 kts | 318° |